createdAt,value
2022-10-09T00:00:24.715Z,11.73
2022-10-09T00:05:17.401Z,8.57
2022-10-09T00:10:10.128Z,14.13
2022-10-09T00:15:04.388Z,11.37
2022-10-09T00:19:56.931Z,11.53
2022-10-09T00:24:49.452Z,14.40
2022-10-09T00:29:41.942Z,17.03
2022-10-09T00:34:35.905Z,12.67
2022-10-09T00:39:28.583Z,16.43
2022-10-09T00:44:39.569Z,12.53
2022-10-09T00:49:33.258Z,14.90
2022-10-09T00:54:30.419Z,14.90
2022-10-09T00:59:22.979Z,14.23
2022-10-09T01:04:15.592Z,13.50
2022-10-09T01:09:11.106Z,15.30
2022-10-09T01:14:08.615Z,14.83
2022-10-09T01:19:06.653Z,16.80
2022-10-09T01:24:05.247Z,14.40
2022-10-09T01:29:00.221Z,13.43
2022-10-09T01:33:52.904Z,12.57
2022-10-09T01:38:45.952Z,16.33
2022-10-09T01:43:38.456Z,16.07
2022-10-09T01:48:32.944Z,11.37
2022-10-09T01:53:25.680Z,14.00
2022-10-09T01:58:19.988Z,15.20
2022-10-09T02:03:16.309Z,15.80
2022-10-09T02:08:11.008Z,15.57
2022-10-09T02:13:03.580Z,16.73
2022-10-09T02:17:58.202Z,13.37
2022-10-09T02:22:51.173Z,18.20
2022-10-09T02:27:45.571Z,15.10
2022-10-09T02:32:38.106Z,17.70
2022-10-09T02:37:30.984Z,20.00
2022-10-09T02:42:23.560Z,12.80
2022-10-09T02:47:17.453Z,15.77
2022-10-09T02:52:10.005Z,18.83
2022-10-09T02:57:02.672Z,18.40
2022-10-09T03:01:55.867Z,18.20
2022-10-09T03:06:49.891Z,20.33
2022-10-09T03:11:42.439Z,20.03
2022-10-09T03:16:34.991Z,26.03
2022-10-09T03:21:28.163Z,47.13
2022-10-09T03:26:22.760Z,65.03
2022-10-09T03:31:39.338Z,43.17
2022-10-09T03:36:28.487Z,70.70
2022-10-09T03:41:22.360Z,65.70
2022-10-09T03:46:14.942Z,39.77
2022-10-09T03:51:07.711Z,44.97
2022-10-09T03:56:00.327Z,45.33
2022-10-09T04:00:54.489Z,74.63
2022-10-09T04:05:47.344Z,54.90
2022-10-09T04:10:40.032Z,55.00
2022-10-09T04:15:32.634Z,86.33
2022-10-09T04:20:26.576Z,100.90
2022-10-09T04:25:19.330Z,80.07
2022-10-09T04:30:12.188Z,91.73
2022-10-09T04:35:05.938Z,119.50
2022-10-09T04:39:59.800Z,70.33
2022-10-09T04:44:52.345Z,78.93
2022-10-09T04:49:44.916Z,97.00
2022-10-09T04:54:37.450Z,114.03
2022-10-09T04:59:31.441Z,131.30
2022-10-09T05:04:23.979Z,122.67
2022-10-09T05:09:16.513Z,153.00
2022-10-09T05:14:09.060Z,96.20
2022-10-09T05:19:03.920Z,121.90
2022-10-09T05:23:56.768Z,100.20
2022-10-09T05:28:49.648Z,118.07
2022-10-09T05:33:42.182Z,133.53
2022-10-09T05:38:36.042Z,144.07
2022-10-09T05:43:29.301Z,153.37
2022-10-09T05:48:22.185Z,152.27
2022-10-09T05:53:14.978Z,144.50
2022-10-09T05:58:08.863Z,135.03
2022-10-09T06:03:01.448Z,112.37
2022-10-09T06:07:53.957Z,127.50
2022-10-09T06:12:46.658Z,132.10
2022-10-09T06:17:40.769Z,145.00
2022-10-09T06:22:33.355Z,147.17
2022-10-09T06:27:25.892Z,180.10
2022-10-09T06:32:18.435Z,166.83
2022-10-09T06:37:12.314Z,187.93
2022-10-09T06:42:05.067Z,232.20
2022-10-09T06:47:15.236Z,239.13
2022-10-09T06:52:07.757Z,243.33
2022-10-09T06:57:01.669Z,242.73
2022-10-09T07:01:56.818Z,149.63
2022-10-09T07:06:49.493Z,234.97
2022-10-09T07:11:43.578Z,163.50
2022-10-09T07:16:38.639Z,126.53
2022-10-09T07:21:31.631Z,86.90
2022-10-09T07:26:25.374Z,69.90
2022-10-09T07:31:18.439Z,46.53
2022-10-09T07:36:12.438Z,33.53
2022-10-09T07:41:05.932Z,25.57
2022-10-09T07:46:01.619Z,16.80
2022-10-09T07:50:54.175Z,16.37
2022-10-09T07:55:48.161Z,17.60
2022-10-09T08:00:40.660Z,13.57
2022-10-09T08:05:33.158Z,13.17
2022-10-09T08:10:25.677Z,11.27
2022-10-09T08:15:19.577Z,14.87
2022-10-09T08:20:12.108Z,16.33
2022-10-09T08:25:04.889Z,13.60
2022-10-09T08:29:57.449Z,15.63
2022-10-09T08:34:52.681Z,13.80
2022-10-09T08:39:45.222Z,11.40
2022-10-09T08:44:40.140Z,11.47
2022-10-09T08:49:38.089Z,13.43
2022-10-09T08:54:35.462Z,14.97
2022-10-09T08:59:28.033Z,12.20
2022-10-09T09:04:34.033Z,11.73
2022-10-09T09:09:31.795Z,10.00
2022-10-09T09:14:34.307Z,10.03
2022-10-09T09:19:41.665Z,9.67
2022-10-09T09:24:38.734Z,8.90
2022-10-09T09:29:38.911Z,10.17
2022-10-09T09:34:36.012Z,10.10
2022-10-09T09:40:34.408Z,11.10
2022-10-09T09:44:45.999Z,10.20
2022-10-09T09:49:38.677Z,7.57
2022-10-09T09:54:31.634Z,8.43
2022-10-09T09:59:28.405Z,13.67
2022-10-09T10:04:28.091Z,6.90
2022-10-09T10:09:21.228Z,6.33
2022-10-09T10:14:14.846Z,6.00
2022-10-09T10:19:07.729Z,6.17
2022-10-09T10:24:03.491Z,8.40
2022-10-09T10:28:59.892Z,5.90
2022-10-09T10:33:55.122Z,7.10
2022-10-09T10:38:52.357Z,5.33
2022-10-09T10:43:49.355Z,5.53
2022-10-09T10:48:42.789Z,5.27
2022-10-09T10:53:45.348Z,8.60
2022-10-09T10:58:43.796Z,5.50
2022-10-09T11:03:54.196Z,6.60
2022-10-09T11:08:53.214Z,4.63
2022-10-09T11:13:51.516Z,6.53
2022-10-09T11:18:52.093Z,7.40
2022-10-09T11:23:50.905Z,6.93
2022-10-09T11:28:46.814Z,5.30
2022-10-09T11:33:41.711Z,6.90
2022-10-09T11:38:36.833Z,6.57
2022-10-09T11:43:46.411Z,5.00
2022-10-09T11:48:42.528Z,5.10
2022-10-09T11:53:37.008Z,5.73
2022-10-09T11:58:29.588Z,5.53
2022-10-09T12:03:30.079Z,4.03
2022-10-09T12:08:26.479Z,5.33
2022-10-09T12:13:41.927Z,4.60
2022-10-09T12:18:37.410Z,4.50
2022-10-09T12:23:32.874Z,5.47
2022-10-09T12:28:28.118Z,4.93
2022-10-09T12:33:23.811Z,5.77
2022-10-09T12:38:18.706Z,5.10
2022-10-09T12:43:11.248Z,7.77
2022-10-09T12:48:10.385Z,4.73
2022-10-09T12:53:04.145Z,9.43
2022-10-09T12:57:59.832Z,4.57
2022-10-09T13:02:52.686Z,4.10
2022-10-09T13:07:51.319Z,5.87
2022-10-09T13:12:49.694Z,3.93
2022-10-09T13:17:43.749Z,4.17
2022-10-09T13:22:36.285Z,5.90
2022-10-09T13:27:30.204Z,4.70
2022-10-09T13:32:24.187Z,4.10
2022-10-09T13:37:20.204Z,4.17
2022-10-09T13:42:14.228Z,5.03
2022-10-09T13:47:06.777Z,3.20
2022-10-09T13:51:59.453Z,2.50
2022-10-09T13:56:53.435Z,4.47
2022-10-09T14:01:46.047Z,3.67
2022-10-09T14:06:39.184Z,4.13
2022-10-09T14:11:31.812Z,3.77
2022-10-09T14:16:25.683Z,3.70
2022-10-09T14:21:18.305Z,3.53
2022-10-09T14:26:10.887Z,4.77
2022-10-09T14:31:05.866Z,5.30
2022-10-09T14:36:04.867Z,3.90
2022-10-09T14:40:57.390Z,4.07
2022-10-09T14:45:49.859Z,6.20
2022-10-09T14:50:42.407Z,3.43
2022-10-09T14:55:36.533Z,3.60
2022-10-09T15:00:29.098Z,3.60
2022-10-09T15:05:21.628Z,5.90
2022-10-09T15:10:14.779Z,6.70
2022-10-09T15:15:09.354Z,2.57
2022-10-09T15:20:01.927Z,2.77
2022-10-09T15:24:54.424Z,2.50
2022-10-09T15:29:46.919Z,4.30
2022-10-09T15:34:41.372Z,5.43
2022-10-09T15:39:34.077Z,5.80
2022-10-09T15:44:26.634Z,4.83
2022-10-09T15:49:19.245Z,6.30
2022-10-09T15:54:14.346Z,4.30
2022-10-09T15:59:06.889Z,2.67
2022-10-09T16:04:02.012Z,3.87
2022-10-09T16:08:55.713Z,4.20
2022-10-09T16:13:49.594Z,3.60
2022-10-09T16:18:42.178Z,2.73
2022-10-09T16:23:35.066Z,3.97
2022-10-09T16:28:28.118Z,4.20
2022-10-09T16:33:22.494Z,4.53
2022-10-09T16:38:15.098Z,3.77
2022-10-09T16:43:07.719Z,4.50
2022-10-09T16:48:01.064Z,4.40
2022-10-09T16:52:55.372Z,6.47
2022-10-09T16:57:48.290Z,5.10
2022-10-09T17:02:41.148Z,4.27
2022-10-09T17:07:34.081Z,6.50
2022-10-09T17:12:27.986Z,7.30
2022-10-09T17:17:20.576Z,5.57
2022-10-09T17:22:13.069Z,7.63
2022-10-09T17:27:09.727Z,4.70
2022-10-09T17:32:03.657Z,3.87
2022-10-09T17:36:56.547Z,5.43
2022-10-09T17:41:49.335Z,4.97
2022-10-09T17:46:42.056Z,4.17
2022-10-09T17:51:37.032Z,4.50
2022-10-09T17:56:30.142Z,5.53
2022-10-09T18:01:23.305Z,4.30
2022-10-09T18:06:16.859Z,5.40
2022-10-09T18:11:11.880Z,5.57
2022-10-09T18:16:05.930Z,4.90
2022-10-09T18:21:03.024Z,4.50
2022-10-09T18:25:55.587Z,5.47
2022-10-09T18:30:49.501Z,8.53
2022-10-09T18:35:42.131Z,6.07
2022-10-09T18:40:41.827Z,7.43
2022-10-09T18:45:38.520Z,5.20
2022-10-09T18:50:32.579Z,5.90
2022-10-09T18:55:25.283Z,7.53
2022-10-09T19:00:18.026Z,6.73
2022-10-09T19:05:10.720Z,5.00
2022-10-09T19:10:05.350Z,7.40
2022-10-09T19:14:57.960Z,6.37
2022-10-09T19:19:50.528Z,5.20
2022-10-09T19:24:45.450Z,5.40
2022-10-09T19:29:39.597Z,7.13
2022-10-09T19:34:32.171Z,5.50
2022-10-09T19:39:24.740Z,7.40
2022-10-09T19:44:17.564Z,4.83
2022-10-09T19:49:11.426Z,7.47
2022-10-09T19:54:04.477Z,9.37
2022-10-09T19:58:57.660Z,5.90
2022-10-09T20:03:54.258Z,5.27
2022-10-09T20:08:48.163Z,5.37
2022-10-09T20:13:41.354Z,7.27
2022-10-09T20:18:34.265Z,6.90
2022-10-09T20:23:26.792Z,8.40
2022-10-09T20:28:20.714Z,5.83
2022-10-09T20:33:13.284Z,6.17
2022-10-09T20:38:05.825Z,6.40
2022-10-09T20:42:58.383Z,6.50
2022-10-09T20:47:52.282Z,6.73
2022-10-09T20:52:44.809Z,6.00
2022-10-09T20:57:37.358Z,6.60
2022-10-09T21:02:30.155Z,8.27
2022-10-09T21:07:24.040Z,6.60
2022-10-09T21:12:16.592Z,10.60
2022-10-09T21:17:09.092Z,7.17
2022-10-09T21:22:01.657Z,6.60
2022-10-09T21:26:55.548Z,8.40
2022-10-09T21:31:48.102Z,7.50
2022-10-09T21:36:56.192Z,6.37
2022-10-09T21:41:56.036Z,7.90
2022-10-09T21:46:48.608Z,6.40
2022-10-09T21:51:41.146Z,7.43
2022-10-09T21:56:33.640Z,7.87
2022-10-09T22:01:27.569Z,7.60
2022-10-09T22:06:20.130Z,9.37
2022-10-09T22:11:12.993Z,7.80
2022-10-09T22:16:06.008Z,9.40
2022-10-09T22:21:03.238Z,9.23
2022-10-09T22:25:59.353Z,9.50
2022-10-09T22:31:00.680Z,11.67
2022-10-09T22:35:53.208Z,12.63
2022-10-09T22:40:47.372Z,9.67
2022-10-09T22:45:39.997Z,11.70
2022-10-09T22:50:32.563Z,8.27
2022-10-09T22:55:25.117Z,11.13
2022-10-09T23:00:19.088Z,9.10
2022-10-09T23:05:11.957Z,10.43
2022-10-09T23:10:04.771Z,13.00
2022-10-09T23:14:57.329Z,10.50
2022-10-09T23:19:51.409Z,6.77
2022-10-09T23:24:43.992Z,8.20
2022-10-09T23:29:36.528Z,10.23
2022-10-09T23:34:29.314Z,7.30
2022-10-09T23:39:23.206Z,7.03
2022-10-09T23:44:18.933Z,11.30
2022-10-09T23:49:14.528Z,9.90
2022-10-09T23:54:07.230Z,7.50
2022-10-09T23:59:01.759Z,8.50
